Time;durP1;ratioP1;P1;durP2;ratioP2;P2;SDS_P1;SDS_P2;PMS_P1;PMS_P2;Temp;Humidity;BMP_temperature;BMP_pressure;BME280_temperature;BME280_humidity;BME280_pressure;Samples;Min_cycle;Max_cycle;Signal;HPM_P1;HPM_P2
2022/04/03 00:01:14;;;;;;;;;;;;;;;18.47;65.67;99743.28;4987991;28;1981;-55
2022/04/03 00:03:42;;;;;;;;;;;;;;;18.44;66.17;99740.91;4988602;28;1463;-63
2022/04/03 00:06:08;;;;;;;;;;;;;;;18.46;65.67;99730.88;4990767;28;1003;-63
2022/04/03 00:08:35;;;;;;;;;;;;;;;18.46;66.06;99741.59;4994756;28;1760;-62
2022/04/03 00:11:01;;;;;;;;;;;;;;;18.43;66.15;99741.91;4997072;28;1617;-55
2022/04/03 00:13:28;;;;;;;;;;;;;;;18.44;65.82;99739.09;4992808;28;1321;-55
2022/04/03 00:15:56;;;;;;;;;;;;;;;18.45;65.48;99745.28;4989834;28;1622;-62
2022/04/03 00:18:22;;;;;;;;;;;;;;;18.40;65.78;99752.94;4992108;28;1384;-61
2022/04/03 00:20:51;;;;;;;;;;;;;;;18.42;66.15;99756.28;4990144;28;1958;-55
2022/04/03 00:23:18;;;;;;;;;;;;;;;18.42;65.78;99753.59;4995776;28;1772;-63
2022/04/03 00:25:45;;;;;;;;;;;;;;;18.41;65.78;99757.31;4992598;28;1449;-62
2022/04/03 00:28:12;;;;;;;;;;;;;;;18.43;66.07;99768.69;4989262;28;1464;-62
2022/04/03 00:30:38;;;;;;;;;;;;;;;18.44;65.69;99765.88;4989119;28;1428;-55
2022/04/03 00:33:05;;;;;;;;;;;;;;;18.40;65.67;99769.84;4987464;28;1262;-63
2022/04/03 00:35:32;;;;;;;;;;;;;;;18.33;66.16;99776.81;4990411;28;1433;-54
2022/04/03 00:38:00;;;;;;;;;;;;;;;18.38;66.17;99787.03;4983621;28;1701;-63
2022/04/03 00:40:26;;;;;;;;;;;;;;;18.39;66.01;99770.84;4987375;28;1884;-62
2022/04/03 00:42:53;;;;;;;;;;;;;;;18.34;66.50;99769.63;4987311;28;1305;-55
2022/04/03 00:45:20;;;;;;;;;;;;;;;18.38;65.89;99765.63;4995626;28;1386;-55
2022/04/03 00:47:48;;;;;;;;;;;;;;;18.39;65.89;99764.66;4991363;28;1353;-62
2022/04/03 00:50:15;;;;;;;;;;;;;;;18.39;65.57;99759.28;4978546;28;1108;-55
2022/04/03 00:52:42;;;;;;;;;;;;;;;18.36;66.04;99757.75;4983899;28;1875;-63
2022/04/03 00:55:11;;;;;;;;;;;;;;;18.38;65.62;99765.63;4987926;28;1431;-55
2022/04/03 00:57:37;;;;;;;;;;;;;;;18.33;66.21;99759.91;4992044;28;1405;-59
2022/04/03 01:00:04;;;;;;;;;;;;;;;18.32;65.82;99766.25;4988680;28;1977;-54
2022/04/03 01:02:31;;;;;;;;;;;;;;;18.44;65.92;99759.66;4986990;28;1526;-55
2022/04/03 01:04:58;;;;;;;;;;;;;;;18.78;64.06;99756.19;4992145;28;1440;-62
2022/04/03 01:07:25;;;;;;;;;;;;;;;18.96;64.04;99770.41;4982002;28;1637;-63
2022/04/03 01:09:51;;;;;;;;;;;;;;;19.09;64.46;99753.88;4991743;28;1344;-62
2022/04/03 01:12:19;;;;;;;;;;;;;;;19.06;63.66;99759.56;4989084;28;1521;-61
2022/04/03 01:14:46;;;;;;;;;;;;;;;18.90;64.21;99756.78;4987719;28;1310;-55
2022/04/03 01:17:14;;;;;;;;;;;;;;;19.04;64.88;99757.03;4986231;28;1601;-62
2022/04/03 01:19:40;;;;;;;;;;;;;;;19.16;64.60;99764.78;4992386;28;1910;-62
2022/04/03 01:22:07;;;;;;;;;;;;;;;19.26;64.31;99765.50;4978979;28;1882;-54
2022/04/03 01:24:34;;;;;;;;;;;;;;;19.40;64.24;99758.69;4995278;28;1304;-63
2022/04/03 01:27:02;;;;;;;;;;;;;;;19.67;62.57;99769.13;4977945;28;1107;-63
2022/04/03 01:29:29;;;;;;;;;;;;;;;19.71;61.97;99766.13;4991126;28;1729;-60
2022/04/03 01:31:55;;;;;;;;;;;;;;;19.71;63.01;99764.31;4984808;28;1538;-62
2022/04/03 01:34:22;;;;;;;;;;;;;;;19.74;62.95;99768.53;4991719;28;1629;-54
2022/04/03 01:36:49;;;;;;;;;;;;;;;19.70;62.77;99756.44;4983786;28;1103;-63
2022/04/03 01:39:15;;;;;;;;;;;;;;;19.73;62.55;99759.63;4991904;28;1613;-55
2022/04/03 01:41:43;;;;;;;;;;;;;;;19.69;63.35;99755.56;4987752;28;1907;-62
2022/04/03 01:44:11;;;;;;;;;;;;;;;19.77;61.79;99765.50;4984430;28;1368;-55
2022/04/03 01:46:38;;;;;;;;;;;;;;;19.74;62.07;99772.06;4988409;28;1518;-63
2022/04/03 01:49:05;;;;;;;;;;;;;;;19.81;62.59;99781.09;4991451;28;1511;-55
2022/04/03 01:51:32;;;;;;;;;;;;;;;19.89;62.45;99771.41;4995926;28;1235;-62
2022/04/03 01:53:59;;;;;;;;;;;;;;;19.88;61.94;99759.84;4991970;28;1721;-55
2022/04/03 01:56:25;;;;;;;;;;;;;;;19.90;61.92;99773.94;4987497;28;1393;-55
2022/04/03 01:58:52;;;;;;;;;;;;;;;19.88;62.21;99775.09;4988834;28;1664;-55
2022/04/03 02:01:20;;;;;;;;;;;;;;;19.93;61.40;99780.78;4985722;28;1976;-54
2022/04/03 02:03:47;;;;;;;;;;;;;;;19.92;61.37;99779.97;4980310;28;1586;-54
2022/04/03 02:06:15;;;;;;;;;;;;;;;19.89;62.08;99787.50;4994774;28;1320;-56
2022/04/03 02:08:42;;;;;;;;;;;;;;;19.88;61.94;99792.03;4991981;28;1708;-55
2022/04/03 02:11:09;;;;;;;;;;;;;;;19.93;61.73;99792.34;4986636;28;1554;-62
2022/04/03 02:13:35;;;;;;;;;;;;;;;19.96;61.33;99780.47;4988900;28;1527;-55
2022/04/03 02:16:02;;;;;;;;;;;;;;;19.93;62.04;99775.44;4984507;28;1456;-62
2022/04/03 02:18:30;;;;;;;;;;;;;;;19.95;61.36;99778.78;4994898;28;1491;-55
2022/04/03 02:20:56;;;;;;;;;;;;;;;19.92;61.31;99771.91;4986556;28;1911;-55
2022/04/03 02:23:23;;;;;;;;;;;;;;;19.93;62.54;99783.47;4982910;28;1460;-55
2022/04/03 02:25:50;;;;;;;;;;;;;;;19.95;61.71;99790.34;4986339;28;1641;-54
2022/04/03 02:28:17;;;;;;;;;;;;;;;19.92;62.01;99776.44;4987540;28;1467;-55
2022/04/03 02:30:44;;;;;;;;;;;;;;;19.93;61.62;99789.69;4987169;28;1515;-62
2022/04/03 02:33:10;;;;;;;;;;;;;;;19.91;61.61;99778.28;4986408;28;1369;-63
2022/04/03 02:35:38;;;;;;;;;;;;;;;19.94;62.27;99779.81;4991046;28;1058;-63
2022/04/03 02:38:05;;;;;;;;;;;;;;;19.98;62.24;99783.84;4992190;28;1263;-62
2022/04/03 02:40:31;;;;;;;;;;;;;;;19.98;62.51;99781.16;4994773;28;1979;-63
2022/04/03 02:42:58;;;;;;;;;;;;;;;19.99;62.28;99782.81;4994720;28;1305;-62
2022/04/03 02:45:24;;;;;;;;;;;;;;;19.94;62.48;99777.13;4991168;28;1875;-62
2022/04/03 02:47:52;;;;;;;;;;;;;;;19.90;61.58;99773.09;4995323;28;1255;-55
2022/04/03 02:50:20;;;;;;;;;;;;;;;20.03;62.64;99766.22;4995711;28;1115;-62
2022/04/03 02:52:47;;;;;;;;;;;;;;;19.91;61.36;99767.53;4994253;28;1356;-55
2022/04/03 02:55:14;;;;;;;;;;;;;;;20.05;62.42;99774.09;4994353;28;1416;-55
2022/04/03 02:57:41;;;;;;;;;;;;;;;19.99;61.94;99753.28;4993848;28;1259;-54
2022/04/03 03:00:08;;;;;;;;;;;;;;;19.98;62.11;99770.41;4995585;28;1154;-62
2022/04/03 03:02:34;;;;;;;;;;;;;;;20.06;61.20;99773.94;4983838;28;1902;-55
2022/04/03 03:05:01;;;;;;;;;;;;;;;20.03;62.56;99762.69;4990170;28;1661;-55
2022/04/03 03:07:36;;;;;;;;;;;;;;;20.02;62.15;99758.34;4980155;28;1254;-62
2022/04/03 03:10:04;;;;;;;;;;;;;;;20.09;61.08;99766.56;4985672;28;1582;-55
2022/04/03 03:12:30;;;;;;;;;;;;;;;20.04;61.81;99764.38;4986044;28;1455;-55
2022/04/03 03:14:57;;;;;;;;;;;;;;;20.07;61.88;99755.97;4990253;28;1428;-63
2022/04/03 03:17:23;;;;;;;;;;;;;;;20.03;61.41;99774.28;4986219;28;1246;-62
2022/04/03 03:19:50;;;;;;;;;;;;;;;20.05;61.62;99771.41;4988471;28;1614;-55
2022/04/03 03:22:17;;;;;;;;;;;;;;;20.08;61.87;99772.94;4977757;28;1963;-60
2022/04/03 03:24:44;;;;;;;;;;;;;;;20.08;61.92;99762.22;4986402;28;1566;-63
2022/04/03 03:27:12;;;;;;;;;;;;;;;20.10;62.37;99773.63;4987007;28;1010;-55
2022/04/03 03:29:38;;;;;;;;;;;;;;;20.10;61.05;99773.63;4988931;28;1765;-55
2022/04/03 03:32:05;;;;;;;;;;;;;;;20.08;61.58;99763.03;4988545;28;1740;-62
2022/04/03 03:34:32;;;;;;;;;;;;;;;20.02;61.80;99771.75;4983992;28;1368;-54
2022/04/03 03:36:58;;;;;;;;;;;;;;;20.04;61.28;99791.22;4990805;28;916;-55
2022/04/03 03:39:26;;;;;;;;;;;;;;;20.03;61.54;99781.47;4983818;28;1534;-62
2022/04/03 03:41:55;;;;;;;;;;;;;;;20.06;61.72;99786.53;4989539;28;1981;-55
2022/04/03 03:44:23;;;;;;;;;;;;;;;19.99;62.04;99780.97;4984355;28;1661;-63
2022/04/03 03:46:49;;;;;;;;;;;;;;;20.04;62.01;99785.84;4989172;28;1582;-54
2022/04/03 03:49:16;;;;;;;;;;;;;;;20.12;61.48;99793.06;4984799;28;1623;-55
2022/04/03 03:51:43;;;;;;;;;;;;;;;20.21;62.03;99794.75;4991122;28;1070;-55
2022/04/03 03:54:10;;;;;;;;;;;;;;;20.21;61.12;99803.66;4992214;28;1587;-55
2022/04/03 03:56:37;;;;;;;;;;;;;;;19.80;61.99;99803.59;4993821;28;1412;-55
2022/04/03 03:59:05;;;;;;;;;;;;;;;19.57;63.83;99794.44;4994223;28;1416;-55
2022/04/03 04:01:33;;;;;;;;;;;;;;;19.37;62.96;99800.06;4990677;28;1911;-55
2022/04/03 04:04:01;;;;;;;;;;;;;;;19.26;63.73;99793.16;4993316;28;1456;-55
2022/04/03 04:06:28;;;;;;;;;;;;;;;19.22;64.04;99801.69;4994286;28;1283;-63
2022/04/03 04:08:54;;;;;;;;;;;;;;;19.13;63.34;99802.63;4993555;28;1264;-62
2022/04/03 04:11:21;;;;;;;;;;;;;;;19.11;64.65;99799.28;4993296;28;1474;-63
2022/04/03 04:13:48;;;;;;;;;;;;;;;19.06;64.05;99805.94;4993649;28;1419;-63
2022/04/03 04:16:15;;;;;;;;;;;;;;;19.03;64.51;99814.28;4993981;28;1399;-55
2022/04/03 04:18:43;;;;;;;;;;;;;;;18.98;64.61;99819.31;4993787;28;1474;-55
2022/04/03 04:21:11;;;;;;;;;;;;;;;18.99;64.41;99828.19;4994836;28;1914;-57
2022/04/03 04:23:38;;;;;;;;;;;;;;;18.97;63.58;99824.81;4993517;28;1283;-55
2022/04/03 04:26:05;;;;;;;;;;;;;;;18.99;64.19;99828.19;4992611;28;1344;-55
2022/04/03 04:28:32;;;;;;;;;;;;;;;19.07;63.40;99828.22;4988773;28;1448;-55
2022/04/03 04:30:58;;;;;;;;;;;;;;;19.11;62.78;99837.63;4984938;28;1448;-62
2022/04/03 04:33:25;;;;;;;;;;;;;;;19.06;63.01;99832.75;4985285;28;1297;-57
2022/04/03 04:35:53;;;;;;;;;;;;;;;19.05;63.48;99844.44;4985752;28;1145;-63
2022/04/03 04:38:20;;;;;;;;;;;;;;;19.00;63.80;99830.72;4988569;28;1692;-57
2022/04/03 04:40:46;;;;;;;;;;;;;;;19.02;62.80;99838.56;4989464;28;1972;-55
2022/04/03 04:43:13;;;;;;;;;;;;;;;18.96;63.56;99834.69;4994037;28;1884;-55
2022/04/03 04:45:39;;;;;;;;;;;;;;;18.96;63.10;99833.84;4991077;28;1434;-63
2022/04/03 04:48:06;;;;;;;;;;;;;;;18.99;63.21;99833.53;4988740;28;1367;-55
2022/04/03 04:50:33;;;;;;;;;;;;;;;18.95;64.37;99830.31;4996271;28;1266;-55
2022/04/03 04:53:01;;;;;;;;;;;;;;;19.00;63.97;99846.78;4994862;28;1525;-64
2022/04/03 04:55:27;;;;;;;;;;;;;;;19.01;64.73;99821.66;4990808;28;1629;-56
2022/04/03 04:57:55;;;;;;;;;;;;;;;19.02;63.71;99823.34;4993444;28;1419;-58
2022/04/03 05:00:22;;;;;;;;;;;;;;;18.95;64.46;99838.38;4987538;28;1463;-67
2022/04/03 05:02:49;;;;;;;;;;;;;;;18.86;65.43;99829.44;4978399;28;1981;-56
2022/04/03 05:05:17;;;;;;;;;;;;;;;18.85;64.21;99843.00;4989674;28;1713;-56
2022/04/03 05:07:44;;;;;;;;;;;;;;;18.84;64.10;99852.00;4982812;28;1445;-62
2022/04/03 05:10:14;;;;;;;;;;;;;;;18.90;63.34;99834.47;4994139;28;1423;-67
2022/04/03 05:12:41;;;;;;;;;;;;;;;19.09;62.99;99853.03;4995680;28;1296;-57
2022/04/03 05:15:10;;;;;;;;;;;;;;;19.03;64.35;99851.81;4995269;28;1281;-56
2022/04/03 05:17:37;;;;;;;;;;;;;;;19.04;63.06;99864.22;4978043;28;10815;-66
2022/04/03 05:20:04;;;;;;;;;;;;;;;19.08;64.08;99856.72;5023633;28;1229;-49
2022/04/03 05:22:31;;;;;;;;;;;;;;;19.16;63.05;99877.34;5012813;28;1906;-54
2022/04/03 05:24:58;;;;;;;;;;;;;;;19.21;62.79;99867.00;5014357;28;1367;-57
2022/04/03 05:27:26;;;;;;;;;;;;;;;19.22;63.26;99874.06;5014830;28;1606;-59
2022/04/03 05:29:54;;;;;;;;;;;;;;;19.22;62.17;99879.41;5015778;28;1362;-58
2022/04/03 05:32:25;;;;;;;;;;;;;;;19.26;63.98;99881.59;5013750;28;1391;-56
2022/04/03 05:34:52;;;;;;;;;;;;;;;19.35;63.63;99878.97;5014658;28;1182;-60
2022/04/03 05:37:19;;;;;;;;;;;;;;;19.41;64.86;99887.19;5008965;28;1324;-62
2022/04/03 05:39:46;;;;;;;;;;;;;;;19.45;65.30;99877.00;5013380;28;1128;-54
2022/04/03 05:42:12;;;;;;;;;;;;;;;19.48;64.19;99890.94;5012147;28;1902;-54
2022/04/03 05:44:40;;;;;;;;;;;;;;;19.52;63.55;99898.66;5011783;28;1471;-60
2022/04/03 05:47:07;;;;;;;;;;;;;;;19.56;65.28;99894.66;5010364;28;1388;-60
2022/04/03 05:49:34;;;;;;;;;;;;;;;19.63;64.41;99884.97;5010467;28;1283;-53
2022/04/03 05:52:00;;;;;;;;;;;;;;;19.68;64.70;99886.16;5009803;28;1359;-58
2022/04/03 05:54:27;;;;;;;;;;;;;;;19.59;64.86;99876.38;5011684;28;1311;-57
2022/04/03 05:56:53;;;;;;;;;;;;;;;19.51;64.35;99887.09;5011530;28;1328;-54
2022/04/03 05:59:20;;;;;;;;;;;;;;;19.58;63.88;99898.03;5010366;28;1673;-58
2022/04/03 06:01:48;;;;;;;;;;;;;;;19.58;63.67;99888.13;5011226;28;1914;-58
2022/04/03 06:04:15;;;;;;;;;;;;;;;19.62;63.28;99885.97;4999384;28;11270;-54
2022/04/03 06:06:42;;;;;;;;;;;;;;;19.66;62.39;99871.25;5011852;28;1188;-55
2022/04/03 06:09:09;;;;;;;;;;;;;;;19.76;62.06;99884.56;5010909;28;1590;-55
2022/04/03 06:11:35;;;;;;;;;;;;;;;19.75;62.53;99899.78;5009818;28;1418;-62
2022/04/03 06:14:02;;;;;;;;;;;;;;;19.76;61.96;99888.06;5004212;28;1308;-59
2022/04/03 06:16:29;;;;;;;;;;;;;;;19.68;63.18;99891.53;5005006;28;1403;-61
2022/04/03 06:18:57;;;;;;;;;;;;;;;19.68;63.75;99882.66;4997141;28;10916;-58
2022/04/03 06:21:23;;;;;;;;;;;;;;;19.69;62.61;99897.72;4991642;28;1919;-55
2022/04/03 06:23:50;;;;;;;;;;;;;;;19.73;63.90;99904.47;4985830;28;1503;-58
2022/04/03 06:26:17;;;;;;;;;;;;;;;19.70;63.20;99918.19;4988678;28;1341;-58
2022/04/03 06:28:44;;;;;;;;;;;;;;;19.77;63.41;99921.94;4987520;28;1630;-65
2022/04/03 06:31:11;;;;;;;;;;;;;;;19.77;63.05;99919.25;4989833;28;1417;-62
2022/04/03 06:33:38;;;;;;;;;;;;;;;19.67;62.86;99937.28;4982618;28;1329;-61
2022/04/03 06:36:06;;;;;;;;;;;;;;;19.65;63.61;99929.38;4988971;28;1254;-63
2022/04/03 06:38:33;;;;;;;;;;;;;;;19.70;63.57;99934.28;4988071;28;1278;-59
2022/04/03 06:41:00;;;;;;;;;;;;;;;19.71;63.27;99941.34;4988145;28;1361;-59
2022/04/03 06:43:27;;;;;;;;;;;;;;;19.72;63.61;99915.41;4982073;28;1906;-63
2022/04/03 06:45:55;;;;;;;;;;;;;;;19.81;64.17;99912.56;4990543;28;1381;-56
2022/04/03 06:48:22;;;;;;;;;;;;;;;19.77;63.64;99907.69;4989883;28;1421;-58
2022/04/03 06:50:49;;;;;;;;;;;;;;;19.55;62.85;99919.78;4985575;28;1421;-59
2022/04/03 06:53:17;;;;;;;;;;;;;;;19.47;63.39;99916.06;4989246;28;1634;-55
2022/04/03 06:55:43;;;;;;;;;;;;;;;19.36;62.92;99924.38;4981608;28;1576;-55
2022/04/03 06:58:10;;;;;;;;;;;;;;;19.32;62.49;99914.97;4987815;28;1583;-62
2022/04/03 07:00:37;;;;;;;;;;;;;;;19.30;62.01;99948.28;4981753;28;1998;-56
2022/04/03 07:03:04;;;;;;;;;;;;;;;19.28;62.40;99959.19;4983604;28;1982;-61
2022/04/03 07:05:31;;;;;;;;;;;;;;;19.25;63.55;99963.00;4985975;28;1293;-59
2022/04/03 07:07:57;;;;;;;;;;;;;;;19.22;62.47;99959.81;4992193;28;1634;-56
2022/04/03 07:10:25;;;;;;;;;;;;;;;19.21;62.38;99964.31;4986741;28;1309;-59
2022/04/03 07:12:54;;;;;;;;;;;;;;;19.22;63.25;99968.69;4985845;28;1630;-55
2022/04/03 07:15:21;;;;;;;;;;;;;;;19.39;62.71;99980.34;4987804;28;1376;-55
2022/04/03 07:17:48;;;;;;;;;;;;;;;19.35;62.23;99975.47;4982772;28;1438;-60
2022/04/03 07:20:14;;;;;;;;;;;;;;;19.36;62.14;99985.19;4981429;28;1205;-61
2022/04/03 07:22:42;;;;;;;;;;;;;;;19.42;62.00;99989.94;4989612;28;1977;-61
2022/04/03 07:25:08;;;;;;;;;;;;;;;19.41;62.41;99994.44;4988359;28;1368;-61
2022/04/03 07:27:37;;;;;;;;;;;;;;;19.41;61.29;99996.28;4985036;28;1356;-59
2022/04/03 07:30:04;;;;;;;;;;;;;;;19.38;62.92;100002.81;4988064;28;1433;-55
2022/04/03 07:32:31;;;;;;;;;;;;;;;19.25;61.78;99994.34;4989487;28;1705;-69
2022/04/03 07:34:58;;;;;;;;;;;;;;;19.55;60.46;100000.25;4988911;28;1734;-59
2022/04/03 07:37:24;;;;;;;;;;;;;;;19.59;61.79;100001.59;4991759;28;1487;-59
2022/04/03 07:39:51;;;;;;;;;;;;;;;19.54;62.11;100001.25;4986149;28;1689;-57
2022/04/03 07:42:18;;;;;;;;;;;;;;;19.63;61.54;100009.16;4984082;28;1907;-56
2022/04/03 07:44:45;;;;;;;;;;;;;;;19.66;61.50;100000.00;4991647;28;1737;-59
2022/04/03 07:47:13;;;;;;;;;;;;;;;19.70;62.53;99990.63;4982483;28;1445;-61
2022/04/03 07:49:41;;;;;;;;;;;;;;;19.80;61.82;100012.00;4981528;28;1509;-57
2022/04/03 07:52:07;;;;;;;;;;;;;;;19.85;62.54;100007.81;4992575;28;1558;-62
2022/04/03 07:54:35;;;;;;;;;;;;;;;19.92;61.99;100017.94;4990296;28;1446;-65
2022/04/03 07:57:01;;;;;;;;;;;;;;;19.93;61.69;100004.34;4988522;28;971;-61
2022/04/03 07:59:28;;;;;;;;;;;;;;;20.10;62.19;100004.44;4989247;28;1596;-60
2022/04/03 08:01:56;;;;;;;;;;;;;;;20.27;62.76;100006.16;4981755;28;1918;-65
2022/04/03 08:04:23;;;;;;;;;;;;;;;20.29;62.81;100014.06;4988959;28;1403;-50
2022/04/03 08:06:49;;;;;;;;;;;;;;;20.22;63.42;100017.41;4982110;28;1020;-55
2022/04/03 08:09:16;;;;;;;;;;;;;;;20.13;63.48;100021.03;4988284;28;1781;-54
2022/04/03 08:11:42;;;;;;;;;;;;;;;20.24;63.44;100012.72;4993638;28;1424;-55
2022/04/03 08:14:09;;;;;;;;;;;;;;;20.36;63.87;100041.97;4984436;28;1579;-54
2022/04/03 08:16:36;;;;;;;;;;;;;;;20.32;64.35;100040.59;4990053;28;1442;-59
2022/04/03 08:19:04;;;;;;;;;;;;;;;20.24;63.85;100039.56;4988515;28;1483;-59
2022/04/03 08:21:30;;;;;;;;;;;;;;;20.22;63.76;100024.63;4987684;28;1075;-64
2022/04/03 08:23:57;;;;;;;;;;;;;;;20.11;63.28;100055.25;4993158;28;1906;-57
2022/04/03 08:26:25;;;;;;;;;;;;;;;20.18;63.35;100059.00;4990651;28;1376;-61
2022/04/03 08:28:52;;;;;;;;;;;;;;;20.16;63.56;100052.09;4990647;28;1380;-58
2022/04/03 08:31:19;;;;;;;;;;;;;;;20.13;62.52;100042.50;4989136;28;1270;-64
2022/04/03 08:33:47;;;;;;;;;;;;;;;20.13;63.10;100029.09;4994078;28;1875;-59
2022/04/03 08:36:15;;;;;;;;;;;;;;;20.10;63.36;100053.59;4987956;28;1046;-56
2022/04/03 08:38:42;;;;;;;;;;;;;;;20.14;63.02;100057.63;4984410;28;1547;-60
2022/04/03 08:41:09;;;;;;;;;;;;;;;20.16;63.19;100069.06;4989931;28;1555;-59
2022/04/03 08:43:35;;;;;;;;;;;;;;;20.18;62.09;100050.94;4988861;28;1906;-58
2022/04/03 08:46:02;;;;;;;;;;;;;;;20.25;62.23;100051.13;4996697;28;1428;-63
2022/04/03 08:48:31;;;;;;;;;;;;;;;20.24;62.08;100050.28;4996277;28;1463;-62
2022/04/03 08:51:01;;;;;;;;;;;;;;;20.25;61.70;100057.34;4996938;28;1256;-56
2022/04/03 08:53:30;;;;;;;;;;;;;;;20.20;62.25;100054.31;4995675;28;1388;-56
2022/04/03 08:55:57;;;;;;;;;;;;;;;20.11;63.59;100066.00;4993318;28;1356;-55
2022/04/03 08:58:24;;;;;;;;;;;;;;;20.17;64.46;100077.94;4996042;28;1455;-64
2022/04/03 09:00:50;;;;;;;;;;;;;;;20.11;63.10;100066.00;4996644;28;1404;-58
2022/04/03 09:03:17;;;;;;;;;;;;;;;20.03;63.82;100074.00;4990863;28;1898;-55
2022/04/03 09:05:44;;;;;;;;;;;;;;;19.93;62.93;100081.31;4991425;28;1301;-57
2022/04/03 09:08:11;;;;;;;;;;;;;;;19.87;63.51;100090.84;4993286;28;1460;-59
2022/04/03 09:10:41;;;;;;;;;;;;;;;19.83;64.12;100087.63;4988190;28;1376;-60
2022/04/03 09:13:08;;;;;;;;;;;;;;;19.79;64.18;100105.03;4986683;28;1315;-59
2022/04/03 09:15:34;;;;;;;;;;;;;;;19.38;60.08;100096.66;4986711;28;1503;-59
2022/04/03 09:18:02;;;;;;;;;;;;;;;19.19;56.99;100096.81;4988907;28;1571;-59
2022/04/03 09:20:30;;;;;;;;;;;;;;;19.23;58.82;100087.47;4990253;28;1274;-58
2022/04/03 09:22:58;;;;;;;;;;;;;;;19.26;58.47;100117.50;4995517;28;1966;-59
2022/04/03 09:25:26;;;;;;;;;;;;;;;19.32;59.99;100107.13;4984837;28;1571;-59
2022/04/03 09:27:54;;;;;;;;;;;;;;;19.34;58.80;100097.09;4989285;28;1638;-54
2022/04/03 09:30:22;;;;;;;;;;;;;;;18.79;54.16;100104.28;4989434;28;1360;-55
2022/04/03 09:32:49;;;;;;;;;;;;;;;18.85;55.04;100111.69;4991493;28;1254;-57
2022/04/03 09:35:17;;;;;;;;;;;;;;;19.06;55.32;100113.28;4990273;28;1730;-53
2022/04/03 09:38:02;;;;;;;;;;;;;;;19.08;55.55;100128.22;4992588;28;1764;-59
2022/04/03 09:40:32;;;;;;;;;;;;;;;19.10;56.61;100111.97;4986335;28;1466;-65
2022/04/03 09:43:13;;;;;;;;;;;;;;;19.07;57.02;100107.75;4985608;28;1975;-67
2022/04/03 09:45:43;;;;;;;;;;;;;;;19.20;57.58;100125.28;4980787;28;1639;-56
2022/04/03 09:48:18;;;;;;;;;;;;;;;19.21;58.81;100135.03;4990592;28;1448;-65
2022/04/03 09:50:54;;;;;;;;;;;;;;;19.16;58.37;100118.53;4994946;28;1264;-57
2022/04/03 09:53:21;;;;;;;;;;;;;;;19.08;57.51;100133.56;4989624;28;1621;-55
2022/04/03 09:55:48;;;;;;;;;;;;;;;19.20;57.41;100133.31;4990176;28;1356;-49
2022/04/03 09:58:16;;;;;;;;;;;;;;;19.11;57.61;100127.06;4994457;28;1885;-55
2022/04/03 10:00:43;;;;;;;;;;;;;;;19.07;56.62;100131.88;4995211;28;1369;-59
2022/04/03 10:03:11;;;;;;;;;;;;;;;19.16;55.14;100137.31;4987727;28;1906;-58
2022/04/03 10:05:37;;;;;;;;;;;;;;;19.15;56.58;100154.41;4978115;28;1021;-66
2022/04/03 10:08:05;;;;;;;;;;;;;;;19.19;55.68;100139.69;4980426;28;1742;-63
2022/04/03 10:10:33;;;;;;;;;;;;;;;19.22;57.59;100152.81;4992109;28;1405;-66
2022/04/03 10:13:00;;;;;;;;;;;;;;;19.18;55.33;100144.22;4988839;28;1223;-62
2022/04/03 10:15:29;;;;;;;;;;;;;;;19.30;57.33;100162.75;4984972;28;1289;-56
2022/04/03 10:17:56;;;;;;;;;;;;;;;19.21;55.39;100137.72;4987195;28;1583;-54
2022/04/03 10:20:25;;;;;;;;;;;;;;;19.22;56.20;100160.84;4986932;28;1103;-66
2022/04/03 10:22:55;;;;;;;;;;;;;;;19.28;56.44;100160.25;4980100;28;1985;-65
2022/04/03 10:25:27;;;;;;;;;;;;;;;19.23;55.37;100155.31;4992782;28;1630;-53
2022/04/03 10:27:56;;;;;;;;;;;;;;;19.19;56.90;100131.66;4987713;28;1226;-66
2022/04/03 10:30:33;;;;;;;;;;;;;;;19.22;56.97;100166.22;4986346;28;1278;-66
2022/04/03 10:33:00;;;;;;;;;;;;;;;19.26;56.74;100135.44;4988437;28;1415;-55
2022/04/03 10:35:27;;;;;;;;;;;;;;;19.29;56.55;100137.78;4978961;28;1078;-68
2022/04/03 10:38:00;;;;;;;;;;;;;;;19.32;56.51;100155.38;4980137;28;1420;-67
2022/04/03 10:40:29;;;;;;;;;;;;;;;19.34;56.78;100154.25;4980196;28;1392;-65
2022/04/03 10:42:58;;;;;;;;;;;;;;;19.35;57.38;100161.28;4985873;28;1906;-66
2022/04/03 10:45:26;;;;;;;;;;;;;;;19.41;56.74;100149.97;4990705;28;1371;-66
2022/04/03 10:48:14;;;;;;;;;;;;;;;19.35;55.93;100155.94;4987614;28;1380;-67
2022/04/03 10:51:11;;;;;;;;;;;;;;;19.25;56.46;100141.75;4983192;28;2311;-55
2022/04/03 10:53:39;;;;;;;;;;;;;;;19.14;55.87;100160.75;4947727;29;1437;-66
2022/04/03 10:56:09;;;;;;;;;;;;;;;19.14;56.69;100166.97;4982515;28;1347;-55
2022/04/03 10:58:46;;;;;;;;;;;;;;;19.31;55.32;100161.75;4993737;28;1383;-53
2022/04/03 11:01:23;;;;;;;;;;;;;;;19.32;55.81;100161.63;4983447;28;1563;-60
2022/04/03 11:03:55;;;;;;;;;;;;;;;19.41;53.92;100160.69;4982068;28;1985;-63
2022/04/03 11:06:30;;;;;;;;;;;;;;;19.33;54.45;100163.28;4996007;28;1873;-53
2022/04/03 11:09:07;;;;;;;;;;;;;;;19.30;55.77;100166.28;4985277;28;1407;-53
2022/04/03 11:11:41;;;;;;;;;;;;;;;19.32;54.43;100177.72;4983233;28;1427;-61
2022/04/03 11:14:08;;;;;;;;;;;;;;;19.24;55.62;100166.91;4991168;28;1575;-60
2022/04/03 11:16:51;;;;;;;;;;;;;;;19.34;54.12;100196.28;4989405;28;1472;-63
2022/04/03 11:19:33;;;;;;;;;;;;;;;19.39;54.58;100167.19;4990018;28;1536;-60
2022/04/03 11:22:03;;;;;;;;;;;;;;;19.44;55.47;100178.31;4986582;28;1469;-55
2022/04/03 11:24:30;;;;;;;;;;;;;;;19.34;56.17;100174.84;4986404;28;1911;-63
2022/04/03 11:26:56;;;;;;;;;;;;;;;19.28;56.67;100185.19;4990606;28;1711;-63
2022/04/03 11:29:23;;;;;;;;;;;;;;;19.29;55.22;100167.28;4990235;28;1749;-62
2022/04/03 11:31:51;;;;;;;;;;;;;;;19.23;56.71;100186.66;4986251;28;1516;-64
2022/04/03 11:34:17;;;;;;;;;;;;;;;19.26;57.07;100186.34;4992102;28;1464;-55
2022/04/03 11:36:44;;;;;;;;;;;;;;;19.19;57.08;100174.53;4982591;28;1072;-55
2022/04/03 11:39:12;;;;;;;;;;;;;;;19.25;57.46;100188.16;4986912;28;1746;-57
2022/04/03 11:41:39;;;;;;;;;;;;;;;19.24;57.94;100180.31;4988890;28;1878;-57
2022/04/03 11:44:07;;;;;;;;;;;;;;;19.23;58.90;100210.78;4987773;28;1911;-63
2022/04/03 11:46:36;;;;;;;;;;;;;;;19.10;57.58;100203.09;4989696;28;1467;-54
2022/04/03 11:49:10;;;;;;;;;;;;;;;19.05;58.60;100195.50;4991601;28;1372;-54
2022/04/03 11:51:36;;;;;;;;;;;;;;;18.92;57.09;100212.91;4994344;28;1428;-54
2022/04/03 11:54:03;;;;;;;;;;;;;;;18.91;58.09;100217.44;4989192;28;1412;-53
2022/04/03 11:56:32;;;;;;;;;;;;;;;18.88;58.29;100228.47;4990175;28;1520;-59
2022/04/03 11:58:59;;;;;;;;;;;;;;;18.91;58.04;100200.53;4984513;28;1293;-60
2022/04/03 12:01:26;;;;;;;;;;;;;;;18.92;56.69;100224.50;4993398;28;1396;-54
2022/04/03 12:03:59;;;;;;;;;;;;;;;19.01;57.20;100210.19;4985176;28;1964;-54
2022/04/03 12:06:26;;;;;;;;;;;;;;;19.04;56.44;100215.25;4993206;28;1267;-55
2022/04/03 12:08:53;;;;;;;;;;;;;;;18.81;55.14;100196.03;4988098;28;1436;-55
2022/04/03 12:11:21;;;;;;;;;;;;;;;18.81;55.41;100203.25;4988445;28;1466;-54
2022/04/03 12:13:49;;;;;;;;;;;;;;;18.72;55.52;100220.16;4984679;28;1591;-54
2022/04/03 12:16:17;;;;;;;;;;;;;;;18.66;55.19;100192.97;4985071;28;1223;-62
2022/04/03 12:18:50;;;;;;;;;;;;;;;18.67;54.76;100189.31;4982464;28;1638;-55
2022/04/03 12:21:17;;;;;;;;;;;;;;;18.71;54.81;100205.09;4982367;28;1204;-54
2022/04/03 12:23:59;;;;;;;;;;;;;;;18.66;54.62;100198.34;4981252;28;1903;-54
2022/04/03 12:26:25;;;;;;;;;;;;;;;18.63;53.90;100198.63;4985314;28;2081;-62
2022/04/03 12:28:55;;;;;;;;;;;;;;;18.61;54.64;100203.28;4986791;28;1688;-59
2022/04/03 12:31:25;;;;;;;;;;;;;;;18.64;54.21;100220.88;4979149;28;1083;-62
2022/04/03 12:34:03;;;;;;;;;;;;;;;18.59;54.22;100213.28;4986785;28;1776;-62
2022/04/03 12:36:35;;;;;;;;;;;;;;;18.65;54.07;100218.06;4986763;28;1722;-55
2022/04/03 12:39:02;;;;;;;;;;;;;;;18.61;54.59;100205.13;4984902;28;1761;-62
2022/04/03 12:41:29;;;;;;;;;;;;;;;18.58;54.47;100203.59;4982352;28;1280;-53
2022/04/03 12:43:57;;;;;;;;;;;;;;;18.60;53.99;100217.69;4984803;28;1902;-55
2022/04/03 12:46:25;;;;;;;;;;;;;;;18.62;53.88;100214.81;4983710;28;1591;-62
2022/04/03 12:48:52;;;;;;;;;;;;;;;18.60;53.63;100225.72;4984783;28;1634;-54
2022/04/03 12:51:19;;;;;;;;;;;;;;;18.54;53.80;100204.00;4986708;28;1003;-62
2022/04/03 12:53:51;;;;;;;;;;;;;;;18.59;53.39;100207.94;4988902;28;1875;-54
2022/04/03 12:56:18;;;;;;;;;;;;;;;18.55;53.19;100208.38;4984327;28;1638;-62